createdAt,value
2022-09-28T00:00:47.620Z,99911.53
2022-09-28T00:03:14.152Z,99899.53
2022-09-28T00:05:40.752Z,99894.88
2022-09-28T00:08:07.246Z,99898.53
2022-09-28T00:10:33.716Z,99876.63
2022-09-28T00:13:01.405Z,99879.25
2022-09-28T00:15:27.937Z,99873.34
2022-09-28T00:17:54.403Z,99869.69
2022-09-28T00:20:22.670Z,99876.56
2022-09-28T00:22:49.226Z,99886.31
2022-09-28T00:25:16.922Z,99889.75
2022-09-28T00:27:43.594Z,99896.06
2022-09-28T00:30:10.409Z,99887.38
2022-09-28T00:32:36.838Z,99887.16
2022-09-28T00:35:03.404Z,99881.28
2022-09-28T00:37:29.957Z,99881.88
2022-09-28T00:39:56.446Z,99875.56
2022-09-28T00:42:25.049Z,99879.19
2022-09-28T00:44:58.680Z,99873.06
2022-09-28T00:47:46.642Z,99878.50
2022-09-28T00:50:33.002Z,99882.94
2022-09-28T00:53:18.287Z,99892.09
2022-09-28T00:55:55.279Z,99887.84
2022-09-28T00:58:27.532Z,99893.16
2022-09-28T01:00:56.723Z,99901.69
2022-09-28T01:03:23.684Z,99893.59
2022-09-28T01:05:53.422Z,99883.63
2022-09-28T01:08:21.925Z,99887.63
2022-09-28T01:10:48.984Z,99893.66
2022-09-28T01:13:17.323Z,99896.84
2022-09-28T01:15:58.413Z,99896.00
2022-09-28T01:18:56.989Z,99897.38
2022-09-28T01:21:24.717Z,99897.38
2022-09-28T01:24:12.371Z,99899.81
2022-09-28T01:26:46.037Z,99900.66
2022-09-28T01:29:31.041Z,99905.00
2022-09-28T01:32:09.647Z,99902.59
2022-09-28T01:34:45.827Z,99893.91
2022-09-28T01:37:15.148Z,99883.97
2022-09-28T01:39:45.949Z,99881.75
2022-09-28T01:42:20.346Z,99880.75
2022-09-28T01:44:50.594Z,99886.44
2022-09-28T01:47:22.863Z,99882.97
2022-09-28T01:49:58.850Z,99886.63
2022-09-28T01:52:31.705Z,99889.91
2022-09-28T01:55:13.289Z,99900.38
2022-09-28T01:57:45.665Z,99898.72
2022-09-28T02:00:15.040Z,99905.22
2022-09-28T02:03:09.584Z,99904.19
2022-09-28T02:05:39.380Z,99899.75
2022-09-28T02:08:15.396Z,99904.00
2022-09-28T02:11:08.437Z,99917.00
2022-09-28T02:13:42.711Z,99935.09
2022-09-28T02:16:16.367Z,99940.59
2022-09-28T02:18:44.907Z,99933.31
2022-09-28T02:21:17.637Z,99933.94
2022-09-28T02:23:56.284Z,99915.06
2022-09-28T02:26:28.058Z,99908.81
2022-09-28T02:28:54.542Z,99901.66
2022-09-28T02:31:21.164Z,99894.16
2022-09-28T02:33:51.120Z,99892.34
2022-09-28T02:36:17.673Z,99877.09
2022-09-28T02:38:44.415Z,99853.75
2022-09-28T02:41:25.912Z,99843.84
2022-09-28T02:44:14.929Z,99830.22
2022-09-28T02:47:00.618Z,99830.44
2022-09-28T02:49:59.079Z,99840.56
2022-09-28T02:52:34.391Z,99843.97
2022-09-28T02:55:14.426Z,99837.84
2022-09-28T02:58:15.686Z,99846.56
2022-09-28T03:00:53.086Z,99852.53
2022-09-28T03:03:33.258Z,99851.69
2022-09-28T03:06:17.873Z,99857.88
2022-09-28T03:09:00.619Z,99858.16
2022-09-28T03:11:33.637Z,99863.88
2022-09-28T03:14:01.634Z,99868.72
2022-09-28T03:16:29.120Z,99877.81
2022-09-28T03:18:55.887Z,99869.47
2022-09-28T03:21:22.387Z,99876.00
2022-09-28T03:23:48.804Z,99876.00
2022-09-28T03:26:16.846Z,99872.25
2022-09-28T03:28:43.449Z,99883.88
2022-09-28T03:31:09.948Z,99873.66
2022-09-28T03:33:36.475Z,99882.34
2022-09-28T03:36:03.009Z,99877.09
2022-09-28T03:38:29.486Z,99877.09
2022-09-28T03:40:57.740Z,99880.16
2022-09-28T03:43:24.932Z,99874.19
2022-09-28T03:46:01.971Z,99879.50
2022-09-28T03:48:33.038Z,99883.06
2022-09-28T03:51:05.838Z,99868.91
2022-09-28T03:53:33.433Z,99859.84
2022-09-28T03:56:05.396Z,99861.59
2022-09-28T03:58:31.979Z,99862.13
2022-09-28T04:01:06.770Z,99867.56
2022-09-28T04:03:33.771Z,99866.13
2022-09-28T04:06:00.606Z,99862.13
2022-09-28T04:08:27.351Z,99861.16
2022-09-28T04:11:01.028Z,99871.47
2022-09-28T04:13:28.834Z,99870.53
2022-09-28T04:15:57.535Z,99868.94
2022-09-28T04:18:24.850Z,99874.28
2022-09-28T04:21:08.966Z,99879.44
2022-09-28T04:23:36.816Z,99881.88
2022-09-28T04:26:08.461Z,99892.75
2022-09-28T04:28:53.265Z,99892.19
2022-09-28T04:31:23.012Z,99891.91
2022-09-28T04:33:49.603Z,99896.97
2022-09-28T04:36:16.121Z,99912.47
2022-09-28T04:38:52.756Z,99908.50
2022-09-28T04:41:20.070Z,99910.88
2022-09-28T04:43:47.400Z,99913.00
2022-09-28T04:46:14.581Z,99901.16
2022-09-28T04:48:41.073Z,99897.09
2022-09-28T04:51:07.589Z,99899.78
2022-09-28T04:53:35.104Z,99885.47
2022-09-28T04:56:03.153Z,99885.03
2022-09-28T04:58:30.650Z,99883.31
2022-09-28T05:01:00.434Z,99885.25
2022-09-28T05:03:28.019Z,99885.94
2022-09-28T05:05:54.856Z,99886.63
2022-09-28T05:08:21.371Z,99884.00
2022-09-28T05:10:47.915Z,99876.69
2022-09-28T05:13:15.558Z,99890.66
2022-09-28T05:15:42.610Z,99878.31
2022-09-28T05:18:09.327Z,99880.75
2022-09-28T05:20:41.083Z,99877.78
2022-09-28T05:23:10.701Z,99870.50
2022-09-28T05:25:37.183Z,99877.91
2022-09-28T05:28:03.803Z,99871.91
2022-09-28T05:30:30.344Z,99866.72
2022-09-28T05:32:56.927Z,99879.31
2022-09-28T05:35:23.388Z,99877.34
2022-09-28T05:37:49.899Z,99882.09
2022-09-28T05:40:16.934Z,99879.88
2022-09-28T05:42:43.474Z,99873.63
2022-09-28T05:45:10.555Z,99882.69
2022-09-28T05:47:38.191Z,99878.50
2022-09-28T05:50:06.205Z,99876.88
2022-09-28T05:52:32.634Z,99870.41
2022-09-28T05:54:59.102Z,99866.16
2022-09-28T05:57:25.636Z,99873.47
2022-09-28T05:59:52.165Z,99867.47
2022-09-28T06:02:18.706Z,99879.09
2022-09-28T06:04:45.222Z,99863.59
2022-09-28T06:07:12.605Z,99875.78
2022-09-28T06:09:39.146Z,99877.59
2022-09-28T06:12:05.648Z,99870.72
2022-09-28T06:14:32.181Z,99892.31
2022-09-28T06:16:58.759Z,99877.28
2022-09-28T06:19:25.235Z,99886.41
2022-09-28T06:21:51.688Z,99893.28
2022-09-28T06:24:18.231Z,99881.53
2022-09-28T06:26:44.890Z,99890.94
2022-09-28T06:29:18.627Z,99895.09
2022-09-28T06:31:47.231Z,99897.81
2022-09-28T06:34:14.384Z,99893.63
2022-09-28T06:36:41.002Z,99891.72
2022-09-28T06:39:07.742Z,99895.84
2022-09-28T06:41:34.246Z,99893.63
2022-09-28T06:44:02.022Z,99897.00
2022-09-28T06:46:28.569Z,99890.09
2022-09-28T06:48:55.084Z,99903.66
2022-09-28T06:51:21.954Z,99896.00
2022-09-28T06:53:48.487Z,99906.41
2022-09-28T06:56:14.966Z,99898.03
2022-09-28T06:58:42.606Z,99906.25
2022-09-28T07:01:09.302Z,99915.28
2022-09-28T07:03:35.782Z,99916.72
2022-09-28T07:06:02.746Z,99919.38
2022-09-28T07:08:29.269Z,99927.72
2022-09-28T07:10:58.947Z,99921.63
2022-09-28T07:16:14.902Z,99917.59
2022-09-28T07:18:42.294Z,99927.41
2022-09-28T07:21:12.471Z,99928.03
2022-09-28T07:23:52.794Z,99921.50
2022-09-28T07:26:23.681Z,99929.84
2022-09-28T07:28:51.055Z,99927.38
2022-09-28T07:31:18.035Z,99926.78
2022-09-28T07:33:45.806Z,99930.03
2022-09-28T07:36:12.482Z,99930.44
2022-09-28T07:38:39.162Z,99937.72
2022-09-28T07:41:11.919Z,99929.75
2022-09-28T07:43:40.257Z,99933.00
2022-09-28T07:46:14.015Z,99943.56
2022-09-28T07:48:42.163Z,99952.09
2022-09-28T07:51:09.847Z,99950.66
2022-09-28T07:53:38.313Z,99947.22
2022-09-28T07:56:09.386Z,99958.22
2022-09-28T07:58:37.757Z,99966.91
2022-09-28T08:01:07.016Z,99970.53
2022-09-28T08:03:35.310Z,99962.56
2022-09-28T08:06:04.385Z,99962.94
2022-09-28T08:08:33.063Z,99964.94
2022-09-28T08:10:59.774Z,99973.41
2022-09-28T08:13:27.225Z,99959.69
2022-09-28T08:15:54.673Z,99959.69
2022-09-28T08:18:23.423Z,99966.75
2022-09-28T08:21:10.978Z,99973.72
2022-09-28T08:23:38.443Z,99969.84
2022-09-28T08:26:06.683Z,99967.63
2022-09-28T08:28:34.951Z,99966.34
2022-09-28T08:31:01.999Z,99959.63
2022-09-28T08:33:30.477Z,99978.63
2022-09-28T08:36:02.046Z,99989.09
2022-09-28T08:38:31.060Z,99991.97
2022-09-28T08:41:16.674Z,100000.38
2022-09-28T08:44:10.823Z,99988.19
2022-09-28T08:46:47.826Z,99997.97
2022-09-28T08:49:30.262Z,99993.50
2022-09-28T08:52:11.704Z,99997.75
2022-09-28T08:54:59.018Z,100000.00
2022-09-28T08:57:45.246Z,100002.47
2022-09-28T09:00:22.157Z,100000.28
2022-09-28T09:02:49.273Z,100011.88
2022-09-28T09:05:23.816Z,100007.38
2022-09-28T09:08:12.415Z,100002.50
2022-09-28T09:10:57.818Z,100011.88
2022-09-28T09:13:43.208Z,100017.38
2022-09-28T09:16:40.491Z,100021.88
2022-09-28T09:19:30.275Z,100018.22
2022-09-28T09:22:11.011Z,100020.84
2022-09-28T09:24:49.603Z,100014.72
2022-09-28T09:27:53.456Z,100012.59
2022-09-28T09:30:31.256Z,100007.28
2022-09-28T09:37:09.311Z,100008.75
2022-09-28T09:40:35.547Z,100017.72
2022-09-28T09:43:29.450Z,100016.34
2022-09-28T09:46:04.085Z,100027.56
2022-09-28T09:48:54.482Z,100028.81
2022-09-28T09:54:36.017Z,100034.53
2022-09-28T09:57:11.315Z,100035.66
2022-09-28T09:59:41.764Z,100039.22
2022-09-28T10:02:36.204Z,100031.69
2022-09-28T10:05:08.977Z,100038.06
2022-09-28T10:07:49.461Z,100028.34
2022-09-28T10:10:33.123Z,100029.97
2022-09-28T10:12:59.632Z,100036.50
2022-09-28T10:15:30.270Z,100024.72
2022-09-28T10:18:11.333Z,100039.56
2022-09-28T10:20:41.291Z,100033.66
2022-09-28T10:23:23.019Z,100027.16
2022-09-28T10:25:52.739Z,100030.19
2022-09-28T10:28:40.893Z,100027.56
2022-09-28T10:31:35.672Z,100028.38
2022-09-28T10:34:12.533Z,100023.69
2022-09-28T10:36:56.095Z,100030.44
2022-09-28T10:39:44.114Z,100028.34
2022-09-28T10:42:18.259Z,100035.38
2022-09-28T10:44:59.223Z,100031.88
2022-09-28T10:47:29.285Z,100039.34
2022-09-28T10:49:56.787Z,100036.84
2022-09-28T10:52:41.977Z,100040.44
2022-09-28T10:55:40.692Z,100053.19
2022-09-28T10:58:37.814Z,100053.69
2022-09-28T11:01:10.397Z,100057.72
2022-09-28T11:03:54.941Z,100064.41
2022-09-28T11:06:38.220Z,100067.22
2022-09-28T11:09:31.207Z,100064.41
2022-09-28T11:12:00.092Z,100066.00
2022-09-28T11:14:42.743Z,100070.31
2022-09-28T11:17:29.654Z,100077.25
2022-09-28T11:19:59.022Z,100070.34
2022-09-28T11:22:31.193Z,100074.78
2022-09-28T11:25:32.789Z,100073.84
2022-09-28T11:28:04.261Z,100073.88
2022-09-28T11:30:49.104Z,100078.59
2022-09-28T11:33:20.591Z,100085.97
2022-09-28T11:36:19.453Z,100078.84
2022-09-28T11:38:48.857Z,100091.31
2022-09-28T11:41:52.976Z,100083.56
2022-09-28T11:44:34.830Z,100098.88
2022-09-28T11:47:29.667Z,100100.28
2022-09-28T11:50:06.522Z,100090.09
2022-09-28T11:52:46.259Z,100085.41
2022-09-28T11:55:21.634Z,100085.16
2022-09-28T11:58:14.375Z,100073.53
2022-09-28T12:00:50.744Z,100081.50
2022-09-28T12:03:36.583Z,100081.91
2022-09-28T12:06:08.859Z,100080.28
2022-09-28T12:08:40.020Z,100074.72
2022-09-28T12:11:37.126Z,100069.19
2022-09-28T12:14:10.393Z,100056.44
2022-09-28T12:17:05.651Z,100059.09
2022-09-28T12:19:42.469Z,100066.41
2022-09-28T12:22:34.517Z,100063.25
2022-09-28T12:25:07.546Z,100061.66
2022-09-28T12:28:06.357Z,100054.47
2022-09-28T12:30:57.170Z,100049.59
2022-09-28T12:33:23.815Z,100048.78
2022-09-28T12:36:31.322Z,100051.00
2022-09-28T12:39:40.905Z,100042.03
2022-09-28T12:42:36.534Z,100043.69
2022-09-28T12:45:19.250Z,100044.94
2022-09-28T12:48:27.091Z,100050.31
2022-09-28T12:51:20.779Z,100070.22
2022-09-28T12:54:08.312Z,100046.09
2022-09-28T12:57:07.128Z,100036.69
2022-09-28T12:59:48.146Z,100038.50
2022-09-28T13:02:39.301Z,100037.31
2022-09-28T13:05:24.377Z,100036.22
2022-09-28T13:08:27.603Z,100036.34
2022-09-28T13:11:20.886Z,100034.88
2022-09-28T13:14:06.993Z,100016.81
2022-09-28T13:17:00.424Z,100016.16
2022-09-28T13:19:48.654Z,99986.97
2022-09-28T13:22:46.323Z,100033.97
2022-09-28T13:25:22.276Z,100027.25
2022-09-28T13:27:55.490Z,100036.94
2022-09-28T13:30:22.662Z,100043.25
2022-09-28T13:32:52.790Z,100040.03
2022-09-28T13:35:22.343Z,100031.91
2022-09-28T13:38:17.951Z,100031.22
2022-09-28T13:41:29.129Z,100045.34
2022-09-28T13:44:16.762Z,100036.03
2022-09-28T13:46:58.897Z,100025.97
2022-09-28T13:49:46.795Z,100030.50
2022-09-28T13:52:39.180Z,100029.81
2022-09-28T13:55:47.259Z,100032.53
2022-09-28T13:58:39.035Z,100027.41
2022-09-28T14:01:17.364Z,100026.78
2022-09-28T14:03:55.869Z,100021.00
2022-09-28T14:06:31.506Z,100017.44
2022-09-28T14:09:12.931Z,100028.94
2022-09-28T14:12:00.611Z,100033.19
2022-09-28T14:14:50.702Z,100033.28
2022-09-28T14:17:23.509Z,100033.28
2022-09-28T14:20:07.267Z,100037.25
2022-09-28T14:22:36.449Z,100033.19
2022-09-28T14:25:26.541Z,100034.78
2022-09-28T14:28:30.015Z,100033.03
2022-09-28T14:30:58.875Z,100025.88
2022-09-28T14:33:33.526Z,100033.09
2022-09-28T14:36:04.666Z,100031.84
2022-09-28T14:38:49.835Z,100032.56
2022-09-28T14:41:17.637Z,100031.78
2022-09-28T14:43:44.049Z,100028.59
2022-09-28T14:46:19.859Z,100035.69
2022-09-28T14:48:57.163Z,100032.88
2022-09-28T14:51:26.780Z,100028.81
2022-09-28T14:54:09.312Z,100028.44
2022-09-28T14:56:57.187Z,100032.72
2022-09-28T14:59:25.378Z,100027.84
2022-09-28T15:02:10.900Z,100026.31
2022-09-28T15:04:43.499Z,100024.38
2022-09-28T15:07:29.713Z,100030.22
2022-09-28T15:09:58.441Z,100025.34
2022-09-28T15:12:30.391Z,100030.72
2022-09-28T15:15:02.627Z,100029.41
2022-09-28T15:17:38.482Z,100039.22
2022-09-28T15:20:23.270Z,100033.09
2022-09-28T15:22:52.988Z,100027.69
2022-09-28T15:25:22.124Z,100030.09
2022-09-28T15:28:04.638Z,100025.69
2022-09-28T15:30:32.993Z,100038.03
2022-09-28T15:33:24.907Z,100034.06
2022-09-28T15:36:05.960Z,100039.59
2022-09-28T15:38:34.026Z,100032.22
2022-09-28T15:41:04.699Z,100032.56
2022-09-28T15:43:33.197Z,100030.50
2022-09-28T15:46:05.095Z,100036.72
2022-09-28T15:48:52.752Z,100037.25
2022-09-28T15:51:23.793Z,100038.50
2022-09-28T15:54:17.579Z,100035.50
2022-09-28T15:56:59.672Z,100046.28
2022-09-28T15:59:34.741Z,100050.13
2022-09-28T16:02:08.183Z,100046.94
2022-09-28T16:04:55.937Z,100044.16
2022-09-28T16:07:40.181Z,100046.00
2022-09-28T16:10:12.435Z,100057.50
2022-09-28T16:12:48.618Z,100057.38
2022-09-28T16:15:25.408Z,100043.00
2022-09-28T16:18:02.997Z,100057.59
2022-09-28T16:20:37.883Z,100063.28
2022-09-28T16:23:21.274Z,100058.47
2022-09-28T16:26:13.072Z,100056.56
2022-09-28T16:28:39.477Z,100054.41
2022-09-28T16:31:10.668Z,100051.38
2022-09-28T16:33:56.786Z,100059.09
2022-09-28T16:36:27.559Z,100065.81
2022-09-28T16:38:54.992Z,100057.16
2022-09-28T16:41:25.963Z,100055.03
2022-09-28T16:43:59.224Z,100054.03
2022-09-28T16:46:32.443Z,100061.66
2022-09-28T16:49:01.587Z,100056.38
2022-09-28T16:51:28.608Z,100057.03
2022-09-28T16:54:18.286Z,100060.53
2022-09-28T16:56:44.786Z,100058.34
2022-09-28T16:59:13.786Z,100055.34
2022-09-28T17:01:43.790Z,100061.53
2022-09-28T17:04:11.213Z,100068.94
2022-09-28T17:06:38.782Z,100057.19
2022-09-28T17:09:07.230Z,100067.41
2022-09-28T17:11:45.080Z,100066.22
2022-09-28T17:14:11.932Z,100074.63
2022-09-28T17:19:42.973Z,100061.63
2022-09-28T17:22:09.989Z,100053.69
2022-09-28T17:24:40.883Z,100073.03
2022-09-28T17:27:15.477Z,100074.25
2022-09-28T17:29:45.464Z,100066.09
2022-09-28T17:32:39.105Z,100062.63
2022-09-28T17:35:23.684Z,100082.97
2022-09-28T17:37:50.938Z,100092.13
2022-09-28T17:40:28.853Z,100087.44
2022-09-28T17:42:56.411Z,100086.78
2022-09-28T17:45:28.435Z,100078.00
2022-09-28T17:47:55.818Z,100085.50
2022-09-28T17:50:28.188Z,100093.81
2022-09-28T17:52:54.846Z,100096.22
2022-09-28T17:55:29.557Z,100091.53
2022-09-28T17:57:56.470Z,100083.72
2022-09-28T18:00:27.165Z,100079.22
2022-09-28T18:02:57.600Z,100087.72
2022-09-28T18:05:25.934Z,100088.53
2022-09-28T18:07:52.583Z,100082.03
2022-09-28T18:10:25.074Z,100089.75
2022-09-28T18:12:51.738Z,100082.25
2022-09-28T18:15:19.385Z,100089.16
2022-09-28T18:17:45.901Z,100075.31
2022-09-28T18:20:13.551Z,100087.09
2022-09-28T18:22:40.324Z,100082.03
2022-09-28T18:25:07.391Z,100086.66
2022-09-28T18:27:36.408Z,100082.59
2022-09-28T18:30:04.086Z,100085.66
2022-09-28T18:32:30.918Z,100086.03
2022-09-28T18:34:57.354Z,100091.34
2022-09-28T18:37:23.789Z,100092.81
2022-09-28T18:39:50.390Z,100083.84
2022-09-28T18:42:17.105Z,100088.09
2022-09-28T18:44:43.581Z,100083.63
2022-09-28T18:47:30.039Z,100084.03
2022-09-28T18:50:19.675Z,100089.13
2022-09-28T18:52:47.373Z,100086.25
2022-09-28T18:55:22.859Z,100086.84
2022-09-28T18:57:49.824Z,100086.66
2022-09-28T19:00:16.392Z,100090.94
2022-09-28T19:02:43.150Z,100099.28
2022-09-28T19:05:09.921Z,100100.09
2022-09-28T19:07:36.447Z,100090.16
2022-09-28T19:10:03.270Z,100096.03
2022-09-28T19:12:29.825Z,100092.63
2022-09-28T19:17:40.285Z,100080.59
2022-09-28T19:20:07.719Z,100084.69
2022-09-28T19:22:34.394Z,100083.44
2022-09-28T19:25:15.593Z,100091.97
2022-09-28T19:27:42.099Z,100088.28
2022-09-28T19:30:09.003Z,100102.78
2022-09-28T19:32:53.501Z,100101.31
2022-09-28T19:35:19.965Z,100100.34
2022-09-28T19:38:01.814Z,100100.53
2022-09-28T19:40:28.508Z,100105.59
2022-09-28T19:42:54.992Z,100115.19
2022-09-28T19:45:21.467Z,100109.69
2022-09-28T19:47:49.140Z,100113.16
2022-09-28T19:50:15.732Z,100113.78
2022-09-28T19:52:42.248Z,100114.63
2022-09-28T19:55:08.874Z,100114.78
2022-09-28T19:57:35.381Z,100119.66
2022-09-28T20:00:03.564Z,100117.97
2022-09-28T20:02:30.482Z,100120.16
2022-09-28T20:04:57.186Z,100124.72
2022-09-28T20:07:23.782Z,100127.03
2022-09-28T20:09:50.267Z,100131.41
2022-09-28T20:12:16.701Z,100126.66
2022-09-28T20:14:43.250Z,100125.16
2022-09-28T20:17:09.826Z,100133.00
2022-09-28T20:19:36.303Z,100136.78
2022-09-28T20:22:03.247Z,100128.81
2022-09-28T20:24:31.285Z,100138.91
2022-09-28T20:26:58.540Z,100141.94
2022-09-28T20:29:30.920Z,100125.88
2022-09-28T20:32:01.722Z,100116.44
2022-09-28T20:34:40.654Z,100112.38
2022-09-28T20:37:07.203Z,100121.97
2022-09-28T20:40:00.503Z,100133.13
2022-09-28T20:42:31.910Z,100116.69
2022-09-28T20:44:58.643Z,100122.09
2022-09-28T20:47:26.291Z,100127.03
2022-09-28T20:49:52.838Z,100114.50
2022-09-28T20:52:19.339Z,100120.97
2022-09-28T20:54:46.239Z,100115.25
2022-09-28T20:57:18.460Z,100122.72
2022-09-28T20:59:45.461Z,100117.84
2022-09-28T21:02:13.281Z,100123.09
2022-09-28T21:04:41.306Z,100123.84
2022-09-28T21:07:10.959Z,100132.31
2022-09-28T21:09:37.769Z,100120.28
2022-09-28T21:12:05.022Z,100132.06
2022-09-28T21:14:31.576Z,100128.44
2022-09-28T21:16:58.059Z,100132.63
2022-09-28T21:19:24.546Z,100126.28
2022-09-28T21:21:51.697Z,100123.75
2022-09-28T21:24:18.326Z,100122.47
2022-09-28T21:26:44.824Z,100120.88
2022-09-28T21:29:13.816Z,100130.94
2022-09-28T21:31:48.074Z,100124.84
2022-09-28T21:34:20.109Z,100121.97
2022-09-28T21:36:53.140Z,100125.22
2022-09-28T21:39:20.234Z,100130.69
2022-09-28T21:41:46.819Z,100133.25
2022-09-28T21:44:14.554Z,100131.38
2022-09-28T21:46:41.300Z,100133.91
2022-09-28T21:49:08.273Z,100127.38
2022-09-28T21:51:35.771Z,100132.63
2022-09-28T21:54:02.266Z,100133.38
2022-09-28T21:56:28.750Z,100134.09
2022-09-28T21:58:55.315Z,100138.72
2022-09-28T22:01:25.514Z,100140.44
2022-09-28T22:03:56.343Z,100134.25
2022-09-28T22:06:28.100Z,100135.53
2022-09-28T22:08:55.537Z,100137.91
2022-09-28T22:11:24.881Z,100146.63
2022-09-28T22:13:53.956Z,100143.16
2022-09-28T22:16:23.473Z,100141.88
2022-09-28T22:18:50.718Z,100139.34
2022-09-28T22:21:22.478Z,100145.25
2022-09-28T22:23:49.667Z,100138.72
2022-09-28T22:26:20.684Z,100140.47
2022-09-28T22:28:49.513Z,100142.81
2022-09-28T22:31:17.943Z,100150.91
2022-09-28T22:33:44.697Z,100150.63
2022-09-28T22:36:11.919Z,100151.97
2022-09-28T22:38:39.386Z,100152.53
2022-09-28T22:41:05.962Z,100149.91
2022-09-28T22:43:32.754Z,100155.34
2022-09-28T22:46:03.424Z,100152.72
2022-09-28T22:48:30.102Z,100150.25
2022-09-28T22:50:56.639Z,100154.06
2022-09-28T22:53:23.234Z,100147.91
2022-09-28T22:55:50.091Z,100161.06
2022-09-28T22:58:16.582Z,100160.41
2022-09-28T23:00:43.280Z,100159.31
2022-09-28T23:03:10.134Z,100161.31
2022-09-28T23:05:36.872Z,100159.22
2022-09-28T23:08:03.716Z,100161.38
2022-09-28T23:10:30.381Z,100162.41
2022-09-28T23:12:56.918Z,100169.38
2022-09-28T23:15:23.394Z,100157.06
2022-09-28T23:17:53.080Z,100156.88
2022-09-28T23:20:20.470Z,100152.63
2022-09-28T23:22:48.004Z,100149.34
2022-09-28T23:25:16.265Z,100156.13
2022-09-28T23:27:50.155Z,100154.59
2022-09-28T23:30:18.607Z,100154.63
2022-09-28T23:32:45.715Z,100150.81
2022-09-28T23:35:13.493Z,100145.47
2022-09-28T23:37:40.033Z,100149.53
2022-09-28T23:40:07.486Z,100147.19
2022-09-28T23:42:34.934Z,100151.25
2022-09-28T23:45:01.816Z,100140.22
2022-09-28T23:47:28.353Z,100142.31
2022-09-28T23:49:54.766Z,100141.50
2022-09-28T23:52:21.258Z,100145.06
2022-09-28T23:54:47.702Z,100143.72
2022-09-28T23:57:14.218Z,100139.25
2022-09-28T23:59:40.662Z,100140.25
